createdAt,value
2019-03-09T00:01:28.655Z,9.30
2019-03-09T00:03:58.171Z,9.40
2019-03-09T00:06:27.525Z,9.40
2019-03-09T00:08:56.902Z,9.50
2019-03-09T00:11:26.460Z,9.60
2019-03-09T00:13:55.881Z,9.60
2019-03-09T00:16:25.194Z,9.60
2019-03-09T00:18:57.699Z,9.60
2019-03-09T00:21:27.171Z,9.60
2019-03-09T00:24:14.038Z,9.60
2019-03-09T00:26:51.909Z,9.70
2019-03-09T00:29:37.526Z,9.80
2019-03-09T00:32:09.616Z,9.80
2019-03-09T00:34:39.252Z,9.80
2019-03-09T00:37:12.593Z,9.90
2019-03-09T00:39:42.140Z,9.90
2019-03-09T00:42:11.546Z,9.90
2019-03-09T00:44:41.030Z,10.00
2019-03-09T00:47:10.841Z,10.00
2019-03-09T00:49:43.030Z,10.10
2019-03-09T00:52:12.444Z,10.10
2019-03-09T00:54:41.940Z,10.10
2019-03-09T00:57:11.428Z,10.10
2019-03-09T00:59:42.522Z,10.00
2019-03-09T01:02:11.763Z,10.10
2019-03-09T01:04:41.112Z,10.10
2019-03-09T01:07:10.540Z,10.10
2019-03-09T01:09:41.430Z,10.20
2019-03-09T01:12:12.654Z,10.30
2019-03-09T01:14:42.019Z,10.30
2019-03-09T01:17:11.437Z,10.30
2019-03-09T01:19:40.931Z,10.30
2019-03-09T01:22:10.337Z,10.40
2019-03-09T01:24:39.710Z,10.40
2019-03-09T01:27:09.035Z,10.40
2019-03-09T01:29:39.603Z,10.40
2019-03-09T01:32:08.958Z,10.30
2019-03-09T01:34:38.341Z,10.20
2019-03-09T01:37:07.665Z,10.20
2019-03-09T01:39:36.884Z,10.10
2019-03-09T01:42:06.141Z,10.10
2019-03-09T01:44:35.504Z,10.00
2019-03-09T01:47:04.864Z,10.00
2019-03-09T01:49:34.265Z,10.00
2019-03-09T01:52:03.554Z,10.00
2019-03-09T01:54:32.965Z,10.00
2019-03-09T01:57:02.263Z,10.00
2019-03-09T01:59:31.573Z,10.10
2019-03-09T02:02:00.946Z,10.10
2019-03-09T02:04:30.324Z,10.10
2019-03-09T02:06:59.557Z,10.20
2019-03-09T02:09:28.873Z,10.20
2019-03-09T02:11:58.153Z,10.30
2019-03-09T02:14:27.523Z,10.30
2019-03-09T02:16:56.871Z,10.30
2019-03-09T02:19:26.177Z,10.30
2019-03-09T02:21:55.565Z,10.40
2019-03-09T02:24:24.823Z,10.40
2019-03-09T02:26:54.165Z,10.40
2019-03-09T02:29:23.520Z,10.50
2019-03-09T02:31:53.382Z,10.50
2019-03-09T02:34:22.800Z,10.50
2019-03-09T02:36:52.184Z,10.50
2019-03-09T02:39:32.617Z,10.50
2019-03-09T02:42:01.983Z,10.50
2019-03-09T02:44:31.294Z,10.40
2019-03-09T02:47:00.696Z,10.40
2019-03-09T02:49:30.060Z,10.30
2019-03-09T02:51:59.431Z,10.30
2019-03-09T02:54:28.736Z,10.30
2019-03-09T02:56:58.021Z,10.20
2019-03-09T02:59:27.405Z,10.20
2019-03-09T03:02:10.956Z,10.20
2019-03-09T03:04:40.302Z,10.20
2019-03-09T03:07:09.703Z,10.20
2019-03-09T03:09:39.087Z,10.10
2019-03-09T03:12:08.454Z,10.10
2019-03-09T03:14:37.666Z,10.10
2019-03-09T03:17:06.977Z,10.10
2019-03-09T03:19:36.310Z,10.10
2019-03-09T03:22:05.699Z,10.10
2019-03-09T03:24:35.055Z,10.00
2019-03-09T03:27:04.389Z,10.00
2019-03-09T03:29:33.828Z,9.90
2019-03-09T03:32:05.214Z,9.90
2019-03-09T03:34:34.290Z,9.90
2019-03-09T03:37:03.818Z,9.80
2019-03-09T03:39:33.164Z,9.80
2019-03-09T03:42:02.547Z,9.80
2019-03-09T03:44:33.409Z,9.80
2019-03-09T03:47:02.779Z,9.80
2019-03-09T03:49:32.064Z,9.80
2019-03-09T03:52:01.501Z,9.80
2019-03-09T03:54:30.828Z,9.80
2019-03-09T03:57:00.135Z,9.80
2019-03-09T03:59:29.475Z,9.80
2019-03-09T04:01:58.848Z,9.80
2019-03-09T04:04:28.118Z,9.80
2019-03-09T04:06:57.531Z,9.80
2019-03-09T04:09:26.856Z,9.80
2019-03-09T04:11:56.438Z,9.80
2019-03-09T04:14:25.668Z,9.80
2019-03-09T04:16:55.072Z,9.80
2019-03-09T04:19:24.445Z,9.90
2019-03-09T04:21:53.823Z,9.90
2019-03-09T04:24:23.170Z,10.00
2019-03-09T04:26:52.496Z,9.90
2019-03-09T04:29:21.852Z,9.90
2019-03-09T04:31:51.253Z,9.90
2019-03-09T04:34:20.628Z,9.90
2019-03-09T04:36:59.245Z,9.90
2019-03-09T04:39:28.620Z,9.90
2019-03-09T04:41:58.046Z,9.90
2019-03-09T04:44:27.428Z,10.00
2019-03-09T04:46:56.754Z,10.00
2019-03-09T04:49:26.054Z,10.00
2019-03-09T04:51:55.258Z,10.00
2019-03-09T04:54:24.654Z,10.00
2019-03-09T04:56:53.946Z,10.10
2019-03-09T04:59:23.276Z,10.10
2019-03-09T05:01:52.640Z,10.10
2019-03-09T05:04:52.987Z,10.20
2019-03-09T05:07:34.924Z,10.20
2019-03-09T05:10:45.514Z,10.20
2019-03-09T05:13:35.382Z,10.20
2019-03-09T05:16:04.658Z,10.20
2019-03-09T05:18:33.936Z,10.20
2019-03-09T05:21:03.277Z,10.30
2019-03-09T05:23:32.648Z,10.30
2019-03-09T05:26:01.899Z,10.30
2019-03-09T05:28:31.088Z,10.30
2019-03-09T05:31:00.509Z,10.30
2019-03-09T05:33:29.781Z,10.30
2019-03-09T05:35:59.145Z,10.40
2019-03-09T05:38:28.528Z,10.40
2019-03-09T05:40:57.919Z,10.40
2019-03-09T05:43:30.321Z,10.50
2019-03-09T05:45:59.660Z,10.50
2019-03-09T05:48:28.937Z,10.50
2019-03-09T05:50:58.233Z,10.50
2019-03-09T05:53:27.617Z,10.60
2019-03-09T05:55:57.008Z,10.60
2019-03-09T05:58:26.273Z,10.70
2019-03-09T06:00:55.585Z,10.70
2019-03-09T06:03:24.810Z,10.80
2019-03-09T06:06:14.934Z,10.80
2019-03-09T06:08:44.360Z,10.80
2019-03-09T06:11:13.741Z,10.70
2019-03-09T06:13:43.025Z,10.70
2019-03-09T06:16:12.400Z,10.70
2019-03-09T06:18:41.757Z,10.60
2019-03-09T06:21:11.149Z,10.60
2019-03-09T06:23:40.485Z,10.50
2019-03-09T06:26:09.876Z,10.50
2019-03-09T06:28:39.089Z,10.30
2019-03-09T06:31:08.555Z,10.30
2019-03-09T06:33:39.758Z,10.20
2019-03-09T06:36:45.280Z,10.10
2019-03-09T06:39:17.405Z,10.00
2019-03-09T06:42:23.964Z,9.90
2019-03-09T06:44:53.365Z,9.90
2019-03-09T06:47:22.671Z,9.80
2019-03-09T06:49:51.944Z,9.70
2019-03-09T06:52:21.246Z,9.70
2019-03-09T06:54:50.516Z,9.70
2019-03-09T06:57:19.808Z,9.60
2019-03-09T06:59:49.137Z,9.60
2019-03-09T07:02:27.836Z,9.60
2019-03-09T07:04:57.396Z,9.60
2019-03-09T07:07:26.772Z,9.60
2019-03-09T07:09:56.270Z,9.70
2019-03-09T07:12:25.834Z,9.70
2019-03-09T07:15:23.018Z,9.70
2019-03-09T07:17:57.479Z,9.70
2019-03-09T07:20:26.825Z,9.60
2019-03-09T07:22:56.077Z,9.60
2019-03-09T07:25:25.372Z,9.50
2019-03-09T07:28:03.449Z,9.50
2019-03-09T07:30:32.789Z,9.40
2019-03-09T07:33:02.097Z,9.30
2019-03-09T07:35:31.353Z,9.30
2019-03-09T07:38:00.914Z,9.20
2019-03-09T07:40:30.469Z,9.20
2019-03-09T07:43:01.022Z,9.10
2019-03-09T07:45:30.595Z,8.90
2019-03-09T07:48:00.397Z,8.80
2019-03-09T07:50:29.924Z,8.80
2019-03-09T07:52:59.526Z,8.70
2019-03-09T07:55:36.597Z,8.70
2019-03-09T07:58:07.492Z,8.70
2019-03-09T08:00:37.935Z,8.70
2019-03-09T08:03:07.309Z,8.80
2019-03-09T08:05:36.689Z,8.90
2019-03-09T08:08:06.059Z,9.00
2019-03-09T08:10:35.362Z,9.10
2019-03-09T08:13:04.839Z,9.20
2019-03-09T08:15:34.349Z,9.30
2019-03-09T08:18:06.155Z,9.40
2019-03-09T08:20:41.537Z,9.50
2019-03-09T08:23:10.941Z,9.60
2019-03-09T08:25:40.336Z,9.70
2019-03-09T08:28:09.784Z,9.90
2019-03-09T08:30:39.382Z,10.00
2019-03-09T08:33:08.860Z,10.20
2019-03-09T08:35:38.470Z,10.40
2019-03-09T08:38:31.886Z,10.50
2019-03-09T08:41:01.241Z,10.60
2019-03-09T08:43:31.020Z,10.80
2019-03-09T08:46:00.392Z,10.90
2019-03-09T08:48:29.715Z,11.00
2019-03-09T08:51:01.202Z,11.10
2019-03-09T08:53:31.306Z,11.30
2019-03-09T08:56:00.724Z,11.40
2019-03-09T08:58:30.849Z,11.50
2019-03-09T09:01:00.507Z,11.60
2019-03-09T09:03:29.828Z,11.70
2019-03-09T09:05:59.128Z,11.80
2019-03-09T09:08:28.740Z,11.90
2019-03-09T09:10:59.224Z,12.00
2019-03-09T09:13:29.624Z,12.10
2019-03-09T09:15:58.959Z,12.10
2019-03-09T09:18:28.253Z,12.10
2019-03-09T09:20:57.587Z,12.10
2019-03-09T09:23:27.015Z,12.10
2019-03-09T09:25:56.342Z,12.20
2019-03-09T09:28:26.219Z,12.30
2019-03-09T09:30:55.655Z,12.40
2019-03-09T09:33:24.888Z,12.60
2019-03-09T09:35:54.288Z,12.60
2019-03-09T09:38:23.579Z,12.60
2019-03-09T09:40:52.907Z,12.60
2019-03-09T09:43:22.304Z,12.70
2019-03-09T09:45:51.653Z,12.80
2019-03-09T09:48:20.943Z,12.90
2019-03-09T09:50:50.148Z,13.10
2019-03-09T09:53:19.882Z,13.10
2019-03-09T09:55:49.239Z,13.10
2019-03-09T09:58:18.483Z,13.20
2019-03-09T10:00:47.833Z,13.20
2019-03-09T10:03:18.425Z,13.20
2019-03-09T10:05:50.095Z,13.20
2019-03-09T10:08:19.592Z,13.30
2019-03-09T10:10:49.142Z,13.30
2019-03-09T10:13:18.536Z,13.30
2019-03-09T10:15:47.893Z,13.40
2019-03-09T10:18:17.309Z,13.50
2019-03-09T10:20:46.635Z,13.50
2019-03-09T10:23:15.916Z,13.50
2019-03-09T10:25:45.162Z,13.50
2019-03-09T10:28:14.571Z,13.60
2019-03-09T10:30:43.970Z,13.70
2019-03-09T10:33:13.368Z,13.80
2019-03-09T10:35:42.736Z,13.90
2019-03-09T10:38:11.985Z,14.00
2019-03-09T10:40:41.447Z,14.10
2019-03-09T10:43:11.293Z,14.20
2019-03-09T10:45:40.688Z,14.30
2019-03-09T10:48:10.116Z,14.40
2019-03-09T10:50:39.762Z,14.40
2019-03-09T10:53:09.190Z,14.50
2019-03-09T10:55:38.686Z,14.60
2019-03-09T10:58:14.004Z,14.60
2019-03-09T11:00:43.450Z,14.60
2019-03-09T11:03:12.738Z,14.70
2019-03-09T11:05:42.100Z,14.90
2019-03-09T11:08:12.347Z,15.00
2019-03-09T11:10:42.794Z,15.00
2019-03-09T11:13:12.133Z,15.00
2019-03-09T11:15:41.618Z,15.00
2019-03-09T11:18:11.054Z,14.90
2019-03-09T11:20:44.834Z,14.90
2019-03-09T11:23:14.160Z,14.90
2019-03-09T11:25:43.793Z,14.90
2019-03-09T11:28:14.104Z,14.90
2019-03-09T11:30:43.472Z,14.90
2019-03-09T11:33:12.912Z,14.90
2019-03-09T11:35:42.458Z,14.90
2019-03-09T11:38:12.145Z,14.90
2019-03-09T11:40:41.782Z,15.00
2019-03-09T11:43:12.519Z,15.10
2019-03-09T11:45:41.981Z,15.10
2019-03-09T11:48:11.442Z,15.20
2019-03-09T11:50:40.771Z,15.30
2019-03-09T11:53:10.230Z,15.30
2019-03-09T11:55:39.685Z,15.30
2019-03-09T11:58:12.779Z,15.30
2019-03-09T12:00:42.728Z,15.30
2019-03-09T12:03:12.367Z,15.40
2019-03-09T12:05:42.245Z,15.50
2019-03-09T12:08:11.829Z,15.70
2019-03-09T12:10:41.331Z,15.90
2019-03-09T12:13:11.034Z,16.20
2019-03-09T12:15:40.293Z,16.60
2019-03-09T12:18:09.920Z,17.00
2019-03-09T12:20:39.573Z,17.20
2019-03-09T12:23:22.332Z,17.20
2019-03-09T12:25:52.046Z,17.00
2019-03-09T12:28:21.521Z,16.80
2019-03-09T12:30:50.949Z,16.40
2019-03-09T12:33:20.373Z,16.10
2019-03-09T12:35:51.965Z,15.80
2019-03-09T12:38:21.630Z,15.60
2019-03-09T12:40:50.930Z,15.40
2019-03-09T12:43:20.368Z,15.30
2019-03-09T12:45:49.828Z,15.10
2019-03-09T12:48:19.258Z,14.80
2019-03-09T12:50:48.934Z,14.30
2019-03-09T12:53:18.553Z,13.60
2019-03-09T12:55:47.994Z,12.90
2019-03-09T12:58:18.674Z,12.40
2019-03-09T13:00:51.285Z,12.10
2019-03-09T13:03:20.807Z,11.80
2019-03-09T13:05:50.427Z,11.60
2019-03-09T13:08:20.016Z,11.50
2019-03-09T13:10:49.859Z,11.30
2019-03-09T13:13:19.763Z,11.00
2019-03-09T13:15:49.310Z,10.80
2019-03-09T13:18:18.765Z,10.70
2019-03-09T13:20:48.373Z,10.80
2019-03-09T13:23:17.701Z,10.80
2019-03-09T13:25:47.041Z,10.90
2019-03-09T13:28:16.583Z,11.00
2019-03-09T13:30:45.994Z,11.00
2019-03-09T13:33:15.389Z,11.10
2019-03-09T13:35:44.810Z,11.20
2019-03-09T13:38:15.479Z,11.30
2019-03-09T13:40:44.936Z,11.30
2019-03-09T13:43:14.253Z,11.40
2019-03-09T13:45:43.539Z,11.30
2019-03-09T13:48:12.857Z,11.30
2019-03-09T13:50:43.347Z,11.30
2019-03-09T13:53:12.689Z,11.30
2019-03-09T13:55:42.284Z,11.40
2019-03-09T13:58:11.620Z,11.30
2019-03-09T14:00:41.081Z,11.40
2019-03-09T14:03:15.803Z,11.50
2019-03-09T14:05:45.384Z,11.50
2019-03-09T14:08:15.070Z,11.60
2019-03-09T14:10:44.458Z,11.60
2019-03-09T14:13:17.653Z,11.60
2019-03-09T14:15:47.007Z,11.70
2019-03-09T14:18:16.352Z,11.70
2019-03-09T14:20:48.221Z,11.80
2019-03-09T14:23:16.883Z,11.90
2019-03-09T14:25:46.397Z,12.10
2019-03-09T14:28:15.870Z,12.20
2019-03-09T14:30:46.350Z,12.40
2019-03-09T14:33:20.574Z,12.40
2019-03-09T14:35:49.020Z,12.50
2019-03-09T14:38:18.375Z,12.50
2019-03-09T14:40:47.734Z,12.30
2019-03-09T14:43:18.084Z,12.20
2019-03-09T14:45:50.042Z,12.10
2019-03-09T14:48:19.423Z,12.00
2019-03-09T14:50:48.944Z,12.10
2019-03-09T14:53:18.366Z,12.10
2019-03-09T14:55:47.767Z,12.10
2019-03-09T14:58:17.366Z,12.10
2019-03-09T15:00:48.783Z,12.10
2019-03-09T15:03:18.190Z,12.20
2019-03-09T15:05:47.947Z,12.10
2019-03-09T15:08:18.680Z,12.10
2019-03-09T15:10:48.219Z,12.10
2019-03-09T15:13:17.623Z,12.10
2019-03-09T15:15:47.087Z,12.10
2019-03-09T15:18:35.443Z,12.20
2019-03-09T15:21:04.775Z,12.20
2019-03-09T15:23:34.141Z,12.30
2019-03-09T15:26:03.541Z,12.40
2019-03-09T15:28:32.995Z,12.40
2019-03-09T15:31:02.443Z,12.50
2019-03-09T15:33:32.738Z,12.60
2019-03-09T15:36:02.241Z,12.70
2019-03-09T15:38:31.676Z,12.70
2019-03-09T15:41:01.021Z,12.80
2019-03-09T15:43:30.487Z,12.90
2019-03-09T15:45:59.955Z,13.00
2019-03-09T15:48:33.811Z,13.10
2019-03-09T15:51:03.363Z,13.20
2019-03-09T15:53:32.704Z,13.30
2019-03-09T15:56:09.215Z,13.40
2019-03-09T15:58:39.367Z,13.50
2019-03-09T16:01:09.116Z,13.60
2019-03-09T16:03:42.514Z,13.70
2019-03-09T16:06:12.744Z,13.80
2019-03-09T16:08:43.051Z,13.90
2019-03-09T16:11:12.967Z,13.90
2019-03-09T16:13:42.418Z,13.90
2019-03-09T16:16:12.555Z,13.90
2019-03-09T16:18:42.855Z,13.90
2019-03-09T16:21:15.486Z,13.80
2019-03-09T16:23:45.514Z,13.80
2019-03-09T16:26:15.456Z,13.70
2019-03-09T16:28:53.964Z,13.60
2019-03-09T16:31:24.420Z,13.50
2019-03-09T16:33:54.285Z,13.50
2019-03-09T16:36:24.980Z,13.40
2019-03-09T16:38:54.424Z,13.30
2019-03-09T16:41:23.726Z,13.20
2019-03-09T16:43:53.118Z,13.20
2019-03-09T16:46:22.466Z,13.10
2019-03-09T16:48:51.870Z,13.10
2019-03-09T16:51:21.270Z,13.00
2019-03-09T16:53:53.656Z,13.00
2019-03-09T16:56:22.994Z,13.00
2019-03-09T16:58:52.343Z,12.90
2019-03-09T17:01:21.623Z,12.90
2019-03-09T17:03:50.972Z,12.80
2019-03-09T17:06:20.247Z,12.80
2019-03-09T17:08:49.648Z,12.80
2019-03-09T17:11:19.003Z,12.80
2019-03-09T17:13:48.399Z,12.90
2019-03-09T17:16:17.632Z,12.90
2019-03-09T17:18:46.996Z,12.90
2019-03-09T17:21:16.417Z,12.90
2019-03-09T17:23:45.811Z,12.90
2019-03-09T17:26:15.915Z,12.90
2019-03-09T17:28:47.751Z,12.90
2019-03-09T17:31:17.749Z,12.90
2019-03-09T17:33:48.495Z,12.90
2019-03-09T17:36:20.675Z,12.90
2019-03-09T17:38:49.826Z,12.90
2019-03-09T17:41:19.287Z,13.00
2019-03-09T17:43:48.664Z,13.00
2019-03-09T17:46:18.065Z,13.00
2019-03-09T17:48:47.418Z,13.00
2019-03-09T17:51:16.776Z,13.10
2019-03-09T17:53:46.196Z,13.10
2019-03-09T17:56:15.733Z,13.10
2019-03-09T17:58:45.052Z,13.10
2019-03-09T18:01:14.404Z,13.00
2019-03-09T18:03:43.758Z,13.00
2019-03-09T18:06:13.140Z,12.90
2019-03-09T18:08:42.566Z,12.90
2019-03-09T18:11:12.328Z,12.80
2019-03-09T18:13:41.662Z,12.80
2019-03-09T18:16:11.562Z,12.80
2019-03-09T18:18:40.972Z,12.80
2019-03-09T18:21:10.368Z,12.80
2019-03-09T18:23:39.644Z,12.90
2019-03-09T18:26:09.540Z,12.90
2019-03-09T18:28:38.818Z,12.90
2019-03-09T18:31:08.220Z,12.90
2019-03-09T18:33:37.580Z,12.80
2019-03-09T18:36:06.906Z,12.80
2019-03-09T18:38:36.216Z,12.60
2019-03-09T18:41:05.523Z,12.40
2019-03-09T18:43:35.802Z,12.20
2019-03-09T18:46:05.124Z,11.80
2019-03-09T18:48:34.442Z,11.50
2019-03-09T18:51:03.997Z,11.10
2019-03-09T18:53:33.533Z,10.80
2019-03-09T18:56:03.530Z,10.50
2019-03-09T18:58:34.274Z,10.40
2019-03-09T19:01:04.371Z,10.20
2019-03-09T19:03:33.674Z,10.10
2019-03-09T19:06:02.904Z,9.90
2019-03-09T19:08:32.417Z,9.80
2019-03-09T19:11:02.356Z,9.70
2019-03-09T19:13:31.798Z,9.60
2019-03-09T19:16:01.189Z,9.50
2019-03-09T19:18:48.600Z,9.40
2019-03-09T19:21:22.365Z,9.30
2019-03-09T19:23:51.814Z,9.20
2019-03-09T19:26:21.236Z,9.20
2019-03-09T19:28:50.814Z,9.10
2019-03-09T19:31:28.196Z,9.10
2019-03-09T19:33:59.614Z,9.10
2019-03-09T19:36:29.201Z,9.10
2019-03-09T19:38:58.753Z,9.10
2019-03-09T19:41:28.295Z,9.20
2019-03-09T19:43:57.959Z,9.20
2019-03-09T19:46:27.577Z,9.20
2019-03-09T19:48:59.455Z,9.30
2019-03-09T19:51:30.256Z,9.30
2019-03-09T19:54:01.390Z,9.40
2019-03-09T19:56:34.774Z,9.40
2019-03-09T19:59:05.683Z,9.50
2019-03-09T20:01:36.274Z,9.50
2019-03-09T20:04:05.667Z,9.50
2019-03-09T20:06:35.375Z,9.60
2019-03-09T20:09:06.544Z,9.60
2019-03-09T20:11:37.106Z,9.60
2019-03-09T20:14:08.146Z,9.70
2019-03-09T20:16:37.668Z,9.70
2019-03-09T20:21:49.360Z,9.70
2019-03-09T20:24:19.602Z,9.70
2019-03-09T20:26:49.175Z,9.70
2019-03-09T20:29:18.752Z,9.70
2019-03-09T20:31:57.730Z,9.70
2019-03-09T20:34:27.710Z,9.70
2019-03-09T20:36:57.542Z,9.70
2019-03-09T20:39:26.980Z,9.70
2019-03-09T20:41:57.091Z,9.80
2019-03-09T20:44:26.881Z,9.80
2019-03-09T20:46:56.309Z,9.80
2019-03-09T20:49:25.775Z,9.80
2019-03-09T20:51:55.216Z,9.80
2019-03-09T20:54:24.616Z,9.80
2019-03-09T20:56:54.391Z,9.80
2019-03-09T20:59:25.166Z,9.90
2019-03-09T21:01:54.851Z,9.80
2019-03-09T21:04:24.796Z,9.80
2019-03-09T21:06:55.621Z,9.80
2019-03-09T21:09:25.484Z,9.80
2019-03-09T21:11:55.435Z,9.80
2019-03-09T21:14:26.681Z,9.90
2019-03-09T21:17:03.883Z,9.90
2019-03-09T21:19:35.875Z,9.90
2019-03-09T21:22:05.299Z,9.80
2019-03-09T21:24:36.111Z,9.80
2019-03-09T21:27:06.109Z,9.80
2019-03-09T21:29:35.649Z,9.70
2019-03-09T21:32:05.350Z,9.70
2019-03-09T21:34:34.682Z,9.60
2019-03-09T21:37:07.809Z,9.60
2019-03-09T21:39:37.308Z,9.50
2019-03-09T21:42:08.802Z,9.40
2019-03-09T21:44:48.893Z,9.40
2019-03-09T21:47:18.945Z,9.30
2019-03-09T21:49:53.003Z,9.30
2019-03-09T21:52:37.666Z,9.20
2019-03-09T21:55:10.999Z,9.20
2019-03-09T21:57:41.039Z,9.10
2019-03-09T22:00:11.666Z,9.00
2019-03-09T22:02:41.269Z,9.00
2019-03-09T22:05:11.922Z,8.90
2019-03-09T22:07:45.962Z,8.90
2019-03-09T22:10:20.503Z,8.90
2019-03-09T22:12:49.889Z,8.80
2019-03-09T22:15:19.567Z,8.80
2019-03-09T22:17:49.222Z,8.80
2019-03-09T22:20:20.455Z,8.70
2019-03-09T22:22:51.576Z,8.70
2019-03-09T22:25:21.220Z,8.60
2019-03-09T22:28:21.105Z,8.60
2019-03-09T22:30:50.914Z,8.60
2019-03-09T22:33:21.081Z,8.60
2019-03-09T22:35:50.892Z,8.50
2019-03-09T22:38:20.366Z,8.50
2019-03-09T22:40:50.494Z,8.50
2019-03-09T22:43:19.911Z,8.50
2019-03-09T22:45:50.920Z,8.40
2019-03-09T22:48:20.598Z,8.50
2019-03-09T22:50:52.024Z,8.50
2019-03-09T22:53:22.131Z,8.50
2019-03-09T22:55:51.598Z,8.40
2019-03-09T22:58:21.024Z,8.50
2019-03-09T23:00:51.485Z,8.50
2019-03-09T23:03:30.161Z,8.40
2019-03-09T23:05:59.665Z,8.40
2019-03-09T23:08:31.971Z,8.40
2019-03-09T23:11:01.363Z,8.40
2019-03-09T23:13:30.961Z,8.30
2019-03-09T23:16:04.842Z,8.30
2019-03-09T23:18:34.925Z,8.30
2019-03-09T23:21:05.686Z,8.20
2019-03-09T23:23:35.179Z,8.30
2019-03-09T23:26:04.561Z,8.20
2019-03-09T23:28:47.701Z,8.30
2019-03-09T23:31:17.046Z,8.30
2019-03-09T23:33:46.338Z,8.20
2019-03-09T23:36:15.691Z,8.30
2019-03-09T23:38:45.082Z,8.20
2019-03-09T23:41:14.455Z,8.20
2019-03-09T23:43:43.989Z,8.20
2019-03-09T23:46:13.481Z,8.20
2019-03-09T23:48:42.774Z,8.10
2019-03-09T23:51:12.143Z,8.10
2019-03-09T23:53:41.717Z,8.10
2019-03-09T23:56:13.578Z,8.10
2019-03-09T23:58:42.286Z,8.10
